Time;durP1;ratioP1;P1;durP2;ratioP2;P2;SDS_P1;SDS_P2;PMS_P1;PMS_P2;Temp;Humidity;BMP_temperature;BMP_pressure;BME280_temperature;BME280_humidity;BME280_pressure;Samples;Min_cycle;Max_cycle;Signal;HPM_P1;HPM_P2
2022/07/12 00:00:51;;;;;;;1.07;0.50;;;16.70;99.90;;;;;;5070635;28;20685;-52
2022/07/12 00:03:18;;;;;;;0.70;0.70;;;16.70;99.90;;;;;;5070636;28;20716;-53
2022/07/12 00:05:45;;;;;;;0.50;0.50;;;16.70;99.90;;;;;;5070043;28;20205;-53
2022/07/12 00:08:12;;;;;;;0.63;0.60;;;16.60;99.90;;;;;;5066742;28;20201;-53
2022/07/12 00:10:39;;;;;;;0.80;0.80;;;16.60;99.90;;;;;;5070322;28;20205;-52
2022/07/12 00:13:08;;;;;;;0.53;0.53;;;16.80;99.90;;;;;;5070265;28;20718;-53
2022/07/12 00:15:35;;;;;;;0.57;0.57;;;16.70;99.90;;;;;;5076391;28;20204;-53
2022/07/12 00:18:02;;;;;;;0.80;0.50;;;16.70;99.90;;;;;;5068121;28;20212;-53
2022/07/12 00:20:29;;;;;;;1.17;0.50;;;16.70;99.90;;;;;;5061072;28;20212;-53
2022/07/12 00:22:57;;;;;;;0.53;0.53;;;16.70;99.90;;;;;;5065698;28;20300;-53
2022/07/12 00:25:25;;;;;;;0.53;0.53;;;16.60;99.90;;;;;;5070095;28;20250;-53
2022/07/12 00:27:51;;;;;;;0.60;0.60;;;16.60;99.90;;;;;;5077687;28;20735;-53
2022/07/12 00:30:20;;;;;;;0.80;0.80;;;16.60;99.90;;;;;;5071015;28;20239;-52
2022/07/12 00:32:47;;;;;;;0.67;0.67;;;16.50;99.90;;;;;;5070409;28;20626;-53
2022/07/12 00:35:15;;;;;;;1.80;0.60;;;16.50;99.90;;;;;;5070055;28;20292;-53
2022/07/12 00:37:42;;;;;;;0.90;0.90;;;16.50;99.90;;;;;;5070397;28;20197;-53
2022/07/12 00:40:11;;;;;;;0.97;0.50;;;16.50;99.90;;;;;;5077455;28;20795;-53
2022/07/12 00:42:38;;;;;;;0.60;0.60;;;16.50;99.90;;;;;;5070317;28;20232;-51
2022/07/12 00:45:07;;;;;;;0.73;0.73;;;16.50;99.90;;;;;;5070087;28;20204;-54
2022/07/12 00:47:40;;;;;;;2.20;0.70;;;16.50;99.90;;;;;;5069594;28;20205;-53
2022/07/12 00:50:09;;;;;;;0.83;0.77;;;16.50;99.90;;;;;;5071126;28;20197;-53
2022/07/12 00:52:37;;;;;;;1.17;0.60;;;16.40;99.90;;;;;;5069880;28;20232;-52
2022/07/12 00:55:04;;;;;;;0.60;0.60;;;16.40;99.90;;;;;;5070281;28;20256;-53
2022/07/12 00:57:33;;;;;;;1.60;0.90;;;16.40;99.90;;;;;;5065328;28;20202;-53
2022/07/12 01:00:00;;;;;;;0.50;0.50;;;16.40;99.90;;;;;;5069297;28;20201;-52
2022/07/12 01:02:28;;;;;;;0.80;0.80;;;16.40;99.90;;;;;;5070229;28;20228;-52
2022/07/12 01:04:57;;;;;;;0.80;0.80;;;16.30;99.90;;;;;;5069799;28;20243;-53
2022/07/12 01:07:26;;;;;;;1.80;1.00;;;16.40;99.90;;;;;;5069949;28;20614;-52
2022/07/12 01:09:53;;;;;;;0.70;0.70;;;16.40;99.90;;;;;;5070534;28;20205;-53
2022/07/12 01:12:22;;;;;;;0.80;0.80;;;16.40;99.90;;;;;;5073645;28;20283;-52
2022/07/12 01:14:50;;;;;;;0.70;0.70;;;16.40;99.90;;;;;;5072389;28;20235;-53
2022/07/12 01:17:19;;;;;;;0.90;0.90;;;16.30;99.90;;;;;;5073671;28;20197;-52
2022/07/12 01:19:46;;;;;;;1.50;0.67;;;16.30;99.90;;;;;;5073579;28;20219;-53
2022/07/12 01:22:17;;;;;;;1.50;0.90;;;16.30;99.90;;;;;;5073324;28;20209;-53
2022/07/12 01:24:45;;;;;;;0.80;0.80;;;16.40;99.90;;;;;;5073311;28;20725;-52
2022/07/12 01:27:13;;;;;;;0.80;0.80;;;16.30;99.90;;;;;;5068512;28;20201;-52
2022/07/12 01:29:41;;;;;;;1.83;0.83;;;16.20;99.90;;;;;;5074072;28;20201;-52
2022/07/12 01:34:51;;;;;;;0.60;0.60;;;16.10;99.90;;;;;;5072805;28;20249;-53
2022/07/12 01:37:19;;;;;;;0.57;0.57;;;16.10;99.90;;;;;;5072268;28;20699;-52
2022/07/12 01:39:50;;;;;;;0.70;0.70;;;16.10;99.90;;;;;;5074067;28;20270;-52
2022/07/12 01:42:17;;;;;;;0.90;0.90;;;16.00;99.90;;;;;;5073286;28;20228;-52
2022/07/12 01:44:44;;;;;;;1.00;1.00;;;15.90;99.90;;;;;;5072952;28;20212;-53
2022/07/12 01:47:12;;;;;;;1.27;0.80;;;15.90;99.90;;;;;;5073085;28;20197;-53
2022/07/12 01:49:39;;;;;;;0.97;0.77;;;15.90;99.90;;;;;;5073742;28;20201;-53
2022/07/12 01:52:07;;;;;;;0.67;0.67;;;15.80;99.90;;;;;;5072853;28;20756;-52
2022/07/12 01:54:35;;;;;;;1.43;0.83;;;15.70;99.90;;;;;;5072950;28;20682;-52
2022/07/12 01:57:04;;;;;;;0.93;0.80;;;15.70;99.90;;;;;;5072950;28;20251;-53
2022/07/12 01:59:32;;;;;;;0.80;0.60;;;15.70;99.90;;;;;;5073507;28;20208;-52
2022/07/12 02:01:59;;;;;;;0.60;0.60;;;15.70;99.90;;;;;;5071906;28;20246;-53
2022/07/12 02:04:26;;;;;;;0.70;0.70;;;15.60;99.90;;;;;;5072808;28;20224;-52
2022/07/12 02:06:53;;;;;;;0.77;0.63;;;15.60;99.90;;;;;;5072776;28;20649;-53
2022/07/12 02:09:20;;;;;;;0.53;0.50;;;15.60;99.90;;;;;;5073648;28;20208;-53
2022/07/12 02:11:47;;;;;;;0.57;0.50;;;15.60;99.90;;;;;;5072759;28;20277;-53
2022/07/12 02:14:17;;;;;;;0.80;0.80;;;15.50;99.90;;;;;;5071913;28;20201;-53
2022/07/12 02:16:44;;;;;;;1.33;0.80;;;15.50;99.90;;;;;;5072268;28;20197;-52
2022/07/12 02:19:12;;;;;;;0.50;0.50;;;15.50;99.90;;;;;;5065189;28;20196;-52
2022/07/12 02:21:39;;;;;;;0.50;0.50;;;15.50;99.90;;;;;;5071546;28;20225;-52
2022/07/12 02:24:07;;;;;;;0.83;0.70;;;15.40;99.90;;;;;;5071750;28;20293;-52
2022/07/12 02:26:35;;;;;;;0.80;0.80;;;15.40;99.90;;;;;;5074636;28;20205;-52
2022/07/12 02:29:02;;;;;;;0.80;0.80;;;15.30;99.90;;;;;;5073012;28;20287;-53
2022/07/12 02:31:30;;;;;;;1.80;0.70;;;15.30;99.90;;;;;;5072250;28;20256;-53
2022/07/12 02:33:57;;;;;;;0.90;0.90;;;15.30;99.90;;;;;;5071758;28;20213;-53
2022/07/12 02:36:24;;;;;;;0.80;0.80;;;15.30;99.90;;;;;;5094024;22;20239;-50
2022/07/12 02:38:51;;;;;;;0.73;0.73;;;15.30;99.90;;;;;;5073063;28;20205;-50
2022/07/12 02:41:18;;;;;;;0.77;0.77;;;15.30;99.90;;;;;;5072947;28;20258;-50
2022/07/12 02:43:45;;;;;;;0.80;0.80;;;15.20;99.90;;;;;;5063638;28;20655;-50
2022/07/12 02:46:13;;;;;;;2.37;0.83;;;15.20;99.90;;;;;;5073630;28;20219;-50
2022/07/12 02:48:42;;;;;;;0.97;0.90;;;15.20;99.90;;;;;;5057893;28;20236;-50
2022/07/12 02:51:10;;;;;;;0.97;0.97;;;15.10;99.90;;;;;;5033013;28;20574;-50
2022/07/12 02:53:38;;;;;;;0.90;0.90;;;15.10;99.90;;;;;;5048193;28;20774;-50
2022/07/12 02:56:06;;;;;;;0.80;0.80;;;15.10;99.90;;;;;;5064966;28;20248;-50
2022/07/12 02:58:34;;;;;;;0.70;0.70;;;15.10;99.90;;;;;;5057940;28;20659;-50
2022/07/12 03:01:01;;;;;;;1.00;0.80;;;15.00;99.90;;;;;;5060331;28;20228;-50
2022/07/12 03:03:29;;;;;;;1.00;1.00;;;15.00;99.90;;;;;;5057406;28;20208;-50
2022/07/12 03:05:58;;;;;;;0.63;0.63;;;15.00;99.90;;;;;;5064683;28;20634;-50
2022/07/12 03:08:25;;;;;;;1.07;0.80;;;15.00;99.90;;;;;;5066594;28;20247;-50
2022/07/12 03:10:52;;;;;;;1.00;1.00;;;15.00;99.90;;;;;;5049424;28;20205;-50
2022/07/12 03:13:19;;;;;;;0.80;0.80;;;15.00;99.90;;;;;;5053103;28;20233;-51
2022/07/12 03:15:46;;;;;;;0.70;0.70;;;15.00;99.90;;;;;;5055260;28;20629;-50
2022/07/12 03:18:14;;;;;;;0.80;0.80;;;14.90;99.90;;;;;;5050281;28;20202;-50
2022/07/12 03:20:41;;;;;;;0.80;0.80;;;14.90;99.90;;;;;;5059274;28;20193;-50
2022/07/12 03:23:12;;;;;;;0.80;0.80;;;14.80;99.90;;;;;;5056583;28;20608;-50
2022/07/12 03:25:39;;;;;;;1.60;0.80;;;14.80;99.90;;;;;;5052438;28;20228;-50
2022/07/12 03:28:06;;;;;;;0.70;0.70;;;14.80;99.90;;;;;;5050936;28;20202;-50
2022/07/12 03:30:33;;;;;;;0.80;0.80;;;14.80;99.90;;;;;;5059017;28;20201;-50
2022/07/12 03:33:00;;;;;;;1.10;1.10;;;14.80;99.90;;;;;;5059540;28;20214;-49
2022/07/12 03:35:27;;;;;;;1.20;0.70;;;14.80;99.90;;;;;;5047622;28;20206;-50
2022/07/12 03:37:54;;;;;;;0.90;0.90;;;14.80;99.90;;;;;;5049716;28;20210;-50
2022/07/12 03:40:23;;;;;;;2.60;1.30;;;14.80;99.90;;;;;;5072424;28;20201;-50
2022/07/12 03:42:50;;;;;;;1.17;1.17;;;14.90;99.90;;;;;;5053410;28;20688;-50
2022/07/12 03:45:18;;;;;;;1.23;1.23;;;14.90;99.90;;;;;;5056683;28;20569;-50
2022/07/12 03:47:46;;;;;;;1.73;1.10;;;14.80;99.90;;;;;;5054540;28;20232;-50
2022/07/12 03:50:14;;;;;;;1.20;1.20;;;14.90;99.90;;;;;;5060046;28;20202;-50
2022/07/12 03:52:42;;;;;;;1.10;1.10;;;14.90;99.90;;;;;;5051089;28;20229;-50
2022/07/12 03:55:10;;;;;;;1.90;1.80;;;14.90;99.90;;;;;;5051780;28;20668;-49
2022/07/12 03:57:39;;;;;;;2.07;1.97;;;14.90;99.90;;;;;;5049578;28;20221;-50
2022/07/12 04:00:09;;;;;;;1.97;1.30;;;15.00;99.90;;;;;;5055208;28;20202;-50
2022/07/12 04:02:37;;;;;;;1.53;1.43;;;15.00;99.90;;;;;;5051643;28;20198;-50
2022/07/12 04:05:05;;;;;;;1.80;1.33;;;15.10;99.90;;;;;;5057852;28;20204;-50
2022/07/12 04:07:33;;;;;;;1.40;1.40;;;15.10;99.90;;;;;;5060355;28;20225;-50
2022/07/12 04:10:00;;;;;;;1.57;1.47;;;15.20;99.90;;;;;;5049678;28;20611;-50
2022/07/12 04:12:26;;;;;;;1.40;1.33;;;15.30;99.90;;;;;;5049808;28;20225;-50
2022/07/12 04:14:55;;;;;;;1.20;1.20;;;15.20;99.90;;;;;;5051743;28;20255;-50
2022/07/12 04:17:22;;;;;;;2.00;1.43;;;15.20;99.90;;;;;;5051806;28;20745;-50
2022/07/12 04:19:49;;;;;;;2.60;1.37;;;15.30;99.90;;;;;;5044614;28;20213;-50
2022/07/12 04:22:16;;;;;;;1.80;1.50;;;15.30;99.90;;;;;;5049427;28;20243;-50
2022/07/12 04:24:43;;;;;;;2.53;1.63;;;15.40;99.90;;;;;;5045540;28;20595;-50
2022/07/12 04:27:10;;;;;;;2.70;2.13;;;15.50;99.90;;;;;;5043551;28;20213;-50
2022/07/12 04:29:37;;;;;;;3.97;2.40;;;15.60;99.90;;;;;;5051704;28;20597;-50
2022/07/12 04:32:06;;;;;;;3.43;2.70;;;15.70;99.90;;;;;;5050912;28;20271;-50
2022/07/12 04:34:33;;;;;;;3.50;3.10;;;15.80;99.90;;;;;;5057524;28;20267;-50
2022/07/12 04:37:00;;;;;;;4.77;4.43;;;15.90;99.90;;;;;;5043447;28;20241;-50
2022/07/12 04:39:27;;;;;;;2.70;2.60;;;16.00;99.90;;;;;;5050721;28;20202;-49
2022/07/12 04:41:54;;;;;;;1.87;1.67;;;16.20;99.90;;;;;;5068879;28;20641;-50
2022/07/12 04:44:21;;;;;;;3.53;1.50;;;16.40;99.90;;;;;;5071583;28;20201;-50
2022/07/12 04:46:48;;;;;;;3.07;1.50;;;16.50;99.90;;;;;;5071138;28;20772;-50
2022/07/12 04:49:16;;;;;;;1.60;1.60;;;16.60;99.90;;;;;;5071578;28;20632;-50
2022/07/12 04:51:43;;;;;;;1.57;1.47;;;16.70;99.90;;;;;;5055952;28;20205;-50
2022/07/12 04:54:10;;;;;;;1.50;1.30;;;16.80;99.90;;;;;;5049114;28;20773;-50
2022/07/12 04:56:37;;;;;;;1.70;1.70;;;16.90;99.90;;;;;;5048644;28;20706;-50
2022/07/12 04:59:04;;;;;;;1.40;1.40;;;17.00;99.90;;;;;;5070684;28;20705;-50
2022/07/12 05:01:33;;;;;;;1.53;1.53;;;16.90;99.90;;;;;;5070691;28;20240;-50
2022/07/12 05:04:00;;;;;;;1.30;1.13;;;16.80;99.90;;;;;;5052697;28;20204;-50
2022/07/12 05:06:29;;;;;;;1.30;1.30;;;16.70;99.90;;;;;;5051334;28;20221;-50
2022/07/12 05:08:56;;;;;;;2.37;2.17;;;16.60;99.90;;;;;;5048628;28;20252;-50
2022/07/12 05:11:23;;;;;;;1.93;1.40;;;16.50;99.90;;;;;;5041477;28;20198;-50
2022/07/12 05:13:50;;;;;;;5.80;1.93;;;16.60;99.90;;;;;;5059270;28;20214;-50
2022/07/12 05:16:17;;;;;;;1.70;1.60;;;16.80;99.90;;;;;;5051061;28;20753;-50
2022/07/12 05:18:44;;;;;;;1.20;1.10;;;17.10;99.90;;;;;;5049182;28;20700;-50
2022/07/12 05:21:11;;;;;;;1.50;1.50;;;17.40;99.90;;;;;;5057983;28;20202;-50
2022/07/12 05:23:40;;;;;;;1.97;1.77;;;17.80;99.90;;;;;;5051318;28;20222;-50
2022/07/12 05:26:07;;;;;;;1.90;1.00;;;18.30;99.90;;;;;;5047164;28;20224;-50
2022/07/12 05:28:34;;;;;;;3.33;1.70;;;19.10;99.90;;;;;;5062639;28;20224;-50
2022/07/12 05:31:01;;;;;;;1.10;1.10;;;20.10;99.90;;;;;;5068951;28;20204;-50
2022/07/12 05:33:28;;;;;;;7.43;1.10;;;21.00;99.90;;;;;;5057113;28;20225;-51
2022/07/12 05:35:55;;;;;;;1.27;1.23;;;21.90;99.90;;;;;;5069139;28;20598;-51
2022/07/12 05:38:22;;;;;;;1.20;1.20;;;22.80;99.90;;;;;;5071084;28;20240;-51
2022/07/12 05:40:51;;;;;;;1.20;1.20;;;23.40;99.90;;;;;;5062035;28;20237;-51
2022/07/12 05:43:18;;;;;;;1.30;1.20;;;23.90;99.90;;;;;;5049182;28;20241;-51
2022/07/12 05:45:46;;;;;;;0.90;0.90;;;24.60;99.90;;;;;;5059010;28;20217;-51
2022/07/12 05:48:13;;;;;;;1.57;0.90;;;24.90;99.90;;;;;;5050967;28;20576;-51
2022/07/12 05:50:40;;;;;;;0.90;0.90;;;25.40;99.90;;;;;;5050152;28;20695;-51
2022/07/12 05:53:24;;;;;;;0.90;0.90;;;25.60;99.90;;;;;;5039058;28;20322;-51
2022/07/12 05:55:53;;;;;;;1.57;1.47;;;25.30;99.90;;;;;;5030508;28;20207;-51
2022/07/12 05:58:21;;;;;;;2.37;1.20;;;25.70;99.90;;;;;;5036153;28;20262;-51
2022/07/12 06:00:48;;;;;;;3.07;1.30;;;26.40;99.90;;;;;;5041617;28;20199;-51
2022/07/12 06:03:16;;;;;;;1.47;1.00;;;26.80;99.90;;;;;;5034546;28;20628;-51
2022/07/12 06:05:43;;;;;;;1.45;1.00;;;27.40;99.90;;;;;;5034796;28;20214;-51
2022/07/12 06:08:13;;;;;;;2.85;1.08;;;27.60;99.90;;;;;;5036498;28;20221;-51
2022/07/12 06:10:40;;;;;;;0.75;0.75;;;27.80;99.90;;;;;;5033735;28;20202;-51
2022/07/12 06:13:09;;;;;;;1.98;1.20;;;28.00;99.90;;;;;;5032611;28;20218;-51
2022/07/12 06:15:37;;;;;;;0.93;0.82;;;28.30;99.90;;;;;;5041386;28;20206;-52
2022/07/12 06:18:04;;;;;;;2.47;0.98;;;28.10;99.90;;;;;;5049756;28;20195;-51
2022/07/12 06:20:31;;;;;;;0.80;0.80;;;28.40;99.90;;;;;;5038624;28;20293;-52
2022/07/12 06:22:59;;;;;;;2.08;1.25;;;28.60;99.90;;;;;;5037799;28;20527;-51
2022/07/12 06:25:26;;;;;;;3.05;1.30;;;28.60;99.90;;;;;;5048817;28;20205;-51
2022/07/12 06:27:53;;;;;;;0.98;0.90;;;28.80;99.90;;;;;;5041288;28;20256;-52
2022/07/12 06:30:22;;;;;;;1.20;1.20;;;28.90;99.90;;;;;;5038151;28;20203;-51
2022/07/12 06:32:50;;;;;;;2.65;1.40;;;29.30;99.90;;;;;;5042352;28;20241;-53
2022/07/12 06:35:17;;;;;;;0.80;0.80;;;29.90;99.90;;;;;;5039335;28;20199;-53
2022/07/12 06:37:44;;;;;;;0.80;0.80;;;30.20;99.90;;;;;;5038323;28;20260;-53
2022/07/12 06:40:15;;;;;;;1.60;1.05;;;30.40;99.90;;;;;;5050719;28;20244;-52
2022/07/12 06:42:41;;;;;;;0.88;0.88;;;30.60;99.70;;;;;;5037149;28;20221;-51
2022/07/12 06:45:10;;;;;;;1.25;0.80;;;30.70;98.60;;;;;;5032891;28;20244;-51
2022/07/12 06:47:38;;;;;;;3.08;0.88;;;30.50;98.00;;;;;;5033801;28;20253;-51
2022/07/12 06:50:06;;;;;;;0.90;0.90;;;30.80;98.70;;;;;;5038936;28;20301;-51
2022/07/12 06:52:33;;;;;;;0.80;0.80;;;30.10;98.30;;;;;;5045084;28;20272;-51
2022/07/12 06:55:00;;;;;;;0.90;0.60;;;29.20;99.50;;;;;;5044340;28;20597;-51
2022/07/12 06:57:29;;;;;;;0.77;0.77;;;29.00;98.50;;;;;;5036789;28;20234;-51
2022/07/12 06:59:56;;;;;;;0.73;0.73;;;28.90;99.40;;;;;;5033029;28;20202;-51
2022/07/12 07:02:23;;;;;;;1.67;1.23;;;29.20;99.80;;;;;;5031718;28;20195;-51
2022/07/12 07:04:52;;;;;;;0.60;0.60;;;29.50;98.00;;;;;;5037396;28;20194;-51
2022/07/12 07:07:19;;;;;;;0.77;0.70;;;29.80;98.20;;;;;;5046249;28;20232;-51
2022/07/12 07:09:46;;;;;;;0.68;0.68;;;30.40;97.50;;;;;;5046106;28;20209;-51
2022/07/12 07:12:13;;;;;;;0.65;0.55;;;30.50;97.40;;;;;;5040819;28;20198;-52
2022/07/12 07:14:40;;;;;;;3.03;1.60;;;30.40;96.90;;;;;;5034772;28;20696;-51
2022/07/12 07:17:07;;;;;;;0.98;0.60;;;30.70;96.10;;;;;;5034424;28;20636;-51
2022/07/12 07:19:34;;;;;;;0.70;0.70;;;29.80;97.80;;;;;;5032616;28;20260;-52
2022/07/12 07:22:02;;;;;;;0.60;0.60;;;29.70;98.60;;;;;;5041511;28;20543;-51
2022/07/12 07:24:29;;;;;;;2.45;0.73;;;29.60;97.20;;;;;;5042077;28;20662;-51
2022/07/12 07:26:56;;;;;;;0.88;0.50;;;30.20;97.40;;;;;;5046704;28;20670;-52
2022/07/12 07:32:08;;;;;;;2.40;0.60;;;31.20;96.90;;;;;;5055617;28;20208;-52
2022/07/12 07:34:35;;;;;;;2.30;0.47;;;31.40;95.20;;;;;;5064097;28;20253;-52
2022/07/12 07:37:03;;;;;;;0.60;0.60;;;31.70;95.70;;;;;;5055653;28;20310;-52
2022/07/12 07:39:30;;;;;;;0.50;0.50;;;32.10;94.90;;;;;;5050320;28;20237;-52
2022/07/12 07:41:57;;;;;;;0.73;0.73;;;31.90;94.10;;;;;;5060890;28;20212;-51
2022/07/12 07:44:24;;;;;;;0.68;0.50;;;31.70;95.50;;;;;;5066430;28;20273;-52
2022/07/12 07:46:56;;;;;;;1.15;0.63;;;30.60;96.20;;;;;;5061338;28;20773;-52
2022/07/12 07:49:23;;;;;;;0.68;0.68;;;31.30;95.70;;;;;;5045971;28;20252;-51
2022/07/12 07:51:50;;;;;;;0.65;0.65;;;31.80;94.40;;;;;;5050937;28;20668;-51
2022/07/12 07:54:18;;;;;;;1.27;0.70;;;32.40;93.60;;;;;;5063085;28;20220;-51
2022/07/12 07:56:45;;;;;;;1.33;0.65;;;32.70;93.20;;;;;;5063904;28;20274;-51
2022/07/12 07:59:12;;;;;;;1.20;0.60;;;32.50;92.80;;;;;;5054177;28;20620;-52
2022/07/12 08:01:46;;;;;;;0.57;0.52;;;32.70;92.70;;;;;;5053253;28;20606;-51
2022/07/12 08:04:16;;;;;;;1.05;0.47;;;32.40;92.40;;;;;;5054550;28;20193;-52
2022/07/12 08:06:43;;;;;;;0.40;0.40;;;32.40;93.20;;;;;;5054556;28;20213;-51
2022/07/12 08:09:11;;;;;;;0.60;0.60;;;32.50;93.90;;;;;;5044110;28;20198;-51
2022/07/12 08:11:39;;;;;;;0.82;0.73;;;32.70;94.00;;;;;;5059729;28;20209;-52
2022/07/12 08:14:07;;;;;;;1.75;0.77;;;32.40;95.10;;;;;;5063564;28;20225;-51
2022/07/12 08:16:35;;;;;;;1.95;0.73;;;31.50;96.20;;;;;;5071798;28;20225;-53
2022/07/12 08:19:03;;;;;;;2.75;0.90;;;30.30;95.80;;;;;;5062156;28;20614;-53
2022/07/12 08:21:30;;;;;;;0.90;0.90;;;30.40;96.40;;;;;;5055836;28;20204;-53
2022/07/12 08:23:58;;;;;;;1.55;0.90;;;29.90;97.30;;;;;;5051280;28;20194;-53
2022/07/12 08:26:25;;;;;;;0.88;0.85;;;30.60;95.80;;;;;;5045325;28;20218;-53
2022/07/12 08:28:54;;;;;;;1.13;0.95;;;30.60;96.20;;;;;;5036085;28;20222;-53
2022/07/12 08:31:21;;;;;;;1.52;1.42;;;31.30;96.60;;;;;;5030339;28;20668;-52
2022/07/12 08:33:49;;;;;;;0.98;0.98;;;31.10;96.40;;;;;;5046765;28;20210;-53
2022/07/12 08:36:16;;;;;;;1.58;1.02;;;31.10;96.80;;;;;;5042292;28;20303;-52
2022/07/12 08:38:44;;;;;;;0.82;0.80;;;31.30;97.90;;;;;;5031203;28;20619;-53
2022/07/12 08:41:13;;;;;;;1.60;0.80;;;30.70;96.40;;;;;;5030437;28;20206;-52
2022/07/12 08:43:41;;;;;;;2.47;0.82;;;30.40;96.60;;;;;;5030724;28;20204;-55
2022/07/12 08:46:11;;;;;;;0.70;0.70;;;29.90;97.60;;;;;;5030663;28;20738;-53
2022/07/12 08:48:43;;;;;;;0.77;0.70;;;29.60;97.30;;;;;;5076629;22;20286;-53
2022/07/12 08:51:11;;;;;;;0.60;0.60;;;28.90;97.10;;;;;;5051083;28;20281;-54
2022/07/12 08:53:39;;;;;;;1.60;0.60;;;29.10;97.80;;;;;;5056648;28;20204;-53
2022/07/12 08:56:07;;;;;;;0.40;0.40;;;29.50;98.20;;;;;;5059874;28;20205;-53
2022/07/12 08:58:35;;;;;;;0.80;0.80;;;29.10;96.90;;;;;;5053533;28;20217;-53
2022/07/12 09:01:02;;;;;;;0.60;0.60;;;29.00;97.40;;;;;;5050411;28;20194;-53
2022/07/12 09:03:30;;;;;;;0.60;0.60;;;28.80;97.20;;;;;;5049650;28;20627;-53
2022/07/12 09:05:59;;;;;;;0.60;0.60;;;28.90;98.10;;;;;;5050022;28;20226;-53
2022/07/12 09:08:29;;;;;;;0.90;0.60;;;29.00;97.50;;;;;;5049860;28;20286;-53
2022/07/12 09:10:59;;;;;;;1.30;0.60;;;29.40;96.80;;;;;;5058173;28;20732;-53
2022/07/12 09:13:50;;;;;;;0.52;0.52;;;29.90;96.40;;;;;;5067500;28;20823;-53
2022/07/12 09:16:19;;;;;;;1.17;0.75;;;30.70;94.80;;;;;;5068780;28;20585;-54
2022/07/12 09:18:48;;;;;;;0.60;0.60;;;30.60;96.60;;;;;;5057283;28;20648;-54
2022/07/12 09:21:26;;;;;;;3.80;0.70;;;31.20;96.10;;;;;;5058992;28;20197;-54
2022/07/12 09:23:56;;;;;;;0.98;0.98;;;31.40;96.00;;;;;;5049696;28;20198;-53
2022/07/12 09:26:24;;;;;;;2.95;0.70;;;31.20;93.90;;;;;;5052604;28;20260;-53
2022/07/12 09:28:52;;;;;;;1.75;0.75;;;30.90;95.40;;;;;;5062329;28;20600;-53
2022/07/12 09:31:20;;;;;;;0.75;0.75;;;30.30;95.50;;;;;;5059600;28;20212;-53
2022/07/12 09:36:58;;;;;;;2.05;0.90;;;30.50;97.40;;;;;;5066460;28;20218;-54
2022/07/12 09:39:26;;;;;;;1.38;1.35;;;30.40;96.30;;;;;;5073143;28;20307;-53
2022/07/12 09:41:56;;;;;;;1.02;1.02;;;30.10;96.60;;;;;;5064594;28;20830;-53
2022/07/12 09:44:24;;;;;;;0.77;0.77;;;29.20;96.90;;;;;;5068425;28;20609;-53
2022/07/12 09:46:52;;;;;;;1.02;0.70;;;29.50;98.00;;;;;;5063958;28;20194;-53
2022/07/12 09:49:21;;;;;;;1.00;0.77;;;29.70;96.40;;;;;;5059673;28;20257;-53
2022/07/12 09:51:50;;;;;;;1.48;0.90;;;30.80;94.80;;;;;;5051889;28;20272;-53
2022/07/12 09:54:25;;;;;;;0.90;0.80;;;30.80;95.50;;;;;;5054312;28;20232;-54
2022/07/12 09:56:55;;;;;;;0.68;0.68;;;30.90;95.70;;;;;;5060322;28;20451;-53
2022/07/12 09:59:24;;;;;;;1.88;1.23;;;30.10;95.50;;;;;;5066758;28;20224;-53
2022/07/12 10:01:55;;;;;;;0.68;0.68;;;30.00;97.20;;;;;;5067455;28;21064;-53
2022/07/12 10:04:24;;;;;;;0.80;0.80;;;30.70;98.30;;;;;;5056227;28;20194;-53
2022/07/12 10:06:52;;;;;;;0.60;0.60;;;30.80;94.40;;;;;;5071650;28;20658;-53
2022/07/12 10:09:19;;;;;;;0.60;0.60;;;31.20;96.40;;;;;;5069937;28;20222;-53
2022/07/12 10:11:47;;;;;;;0.80;0.80;;;31.00;94.70;;;;;;5060860;28;20194;-52
2022/07/12 10:14:15;;;;;;;0.93;0.93;;;31.30;95.90;;;;;;5071359;28;20213;-53
2022/07/12 10:16:44;;;;;;;1.00;0.70;;;31.80;96.50;;;;;;5052961;28;20204;-53
2022/07/12 10:19:29;;;;;;;0.98;0.98;;;31.50;94.60;;;;;;5063302;28;20221;-53
2022/07/12 10:21:58;;;;;;;0.60;0.60;;;30.60;95.00;;;;;;5070839;28;20197;-53
2022/07/12 10:24:51;;;;;;;1.17;0.85;;;30.60;95.50;;;;;;5071303;28;20254;-53
2022/07/12 10:27:33;;;;;;;0.95;0.95;;;30.90;95.40;;;;;;5069641;28;20201;-54
2022/07/12 10:30:18;;;;;;;0.73;0.73;;;31.20;95.90;;;;;;5067792;28;20229;-54
2022/07/12 10:32:45;;;;;;;0.60;0.60;;;31.50;94.00;;;;;;5058187;28;20288;-53
2022/07/12 10:35:17;;;;;;;0.73;0.45;;;31.40;93.50;;;;;;5059126;28;20213;-52
2022/07/12 10:38:16;;;;;;;1.05;0.70;;;30.80;96.70;;;;;;5052388;28;20233;-53
2022/07/12 10:40:45;;;;;;;0.50;0.50;;;30.80;94.40;;;;;;5059757;28;20296;-53
2022/07/12 10:43:21;;;;;;;0.68;0.68;;;30.20;94.00;;;;;;5052724;28;20193;-53
2022/07/12 10:45:49;;;;;;;0.50;0.50;;;29.70;95.50;;;;;;5052050;28;20276;-53
2022/07/12 10:48:24;;;;;;;0.60;0.60;;;29.60;96.60;;;;;;5052105;28;20229;-53
2022/07/12 10:50:56;;;;;;;0.75;0.75;;;29.80;95.40;;;;;;5067374;28;20667;-53
2022/07/12 10:53:34;;;;;;;0.60;0.60;;;30.40;94.80;;;;;;5054477;28;20642;-53
2022/07/12 10:56:17;;;;;;;0.73;0.73;;;30.10;94.50;;;;;;5051710;28;20221;-53
2022/07/12 10:58:46;;;;;;;0.70;0.68;;;29.90;95.80;;;;;;5055488;28;20231;-53
2022/07/12 11:01:15;;;;;;;3.72;0.75;;;29.50;95.30;;;;;;5055246;28;20202;-53
2022/07/12 11:03:44;;;;;;;0.80;0.80;;;28.70;96.50;;;;;;5052642;28;20256;-53
2022/07/12 11:06:13;;;;;;;0.75;0.70;;;28.70;97.10;;;;;;5051680;28;20197;-53
2022/07/12 11:08:55;;;;;;;0.50;0.50;;;28.70;98.10;;;;;;5064646;28;20224;-54
2022/07/12 11:11:25;;;;;;;0.60;0.60;;;28.30;96.30;;;;;;5057961;28;20205;-53
2022/07/12 11:13:53;;;;;;;0.70;0.70;;;28.20;96.30;;;;;;5056861;28;20284;-53
2022/07/12 11:16:20;;;;;;;0.50;0.50;;;27.80;96.10;;;;;;5051425;28;20769;-54
2022/07/12 11:18:47;;;;;;;0.57;0.45;;;28.00;96.20;;;;;;5053775;28;20644;-54
2022/07/12 11:21:15;;;;;;;0.60;0.60;;;27.90;96.20;;;;;;5054630;28;20284;-53
2022/07/12 11:23:42;;;;;;;0.47;0.47;;;27.70;97.30;;;;;;5051642;28;20275;-54
2022/07/12 11:26:11;;;;;;;1.88;0.98;;;27.50;96.60;;;;;;5052261;28;20217;-53
2022/07/12 11:28:41;;;;;;;0.40;0.40;;;27.40;97.00;;;;;;5068771;28;20221;-53
2022/07/12 11:31:10;;;;;;;1.93;0.60;;;27.20;95.50;;;;;;5054873;28;20206;-52
2022/07/12 11:33:38;;;;;;;0.40;0.40;;;27.40;95.30;;;;;;5051071;28;20193;-53
2022/07/12 11:36:07;;;;;;;0.70;0.70;;;27.40;97.60;;;;;;5051277;28;20218;-53
2022/07/12 11:38:36;;;;;;;1.05;0.47;;;27.50;96.50;;;;;;5052582;28;20958;-53
2022/07/12 11:41:04;;;;;;;0.50;0.50;;;27.40;97.20;;;;;;5059750;28;20193;-53
2022/07/12 11:43:32;;;;;;;0.55;0.50;;;27.40;97.40;;;;;;5058481;28;20252;-54
2022/07/12 11:46:01;;;;;;;0.83;0.83;;;27.30;95.70;;;;;;5070296;28;20287;-53
2022/07/12 11:48:29;;;;;;;1.03;0.50;;;27.10;96.70;;;;;;5072492;28;20233;-54
2022/07/12 11:50:56;;;;;;;0.60;0.60;;;27.30;96.70;;;;;;5070252;28;20276;-54
2022/07/12 11:53:25;;;;;;;0.60;0.60;;;27.30;94.30;;;;;;5073417;28;20280;-53
2022/07/12 11:55:55;;;;;;;0.40;0.40;;;27.20;96.20;;;;;;5071857;28;20221;-53
2022/07/12 11:58:22;;;;;;;0.50;0.50;;;26.90;95.70;;;;;;5070567;28;20225;-53
2022/07/12 12:00:50;;;;;;;0.70;0.70;;;26.90;95.90;;;;;;5072523;28;20575;-53
2022/07/12 12:03:21;;;;;;;0.45;0.45;;;26.90;93.40;;;;;;5071728;28;20212;-55
2022/07/12 12:05:50;;;;;;;0.40;0.40;;;27.00;95.00;;;;;;5071446;28;20211;-53
2022/07/12 12:08:18;;;;;;;1.42;0.47;;;27.00;93.90;;;;;;5070406;28;20232;-52
2022/07/12 12:10:54;;;;;;;1.07;0.47;;;27.00;95.90;;;;;;5069173;28;20204;-53
2022/07/12 12:13:21;;;;;;;0.68;0.68;;;26.90;96.40;;;;;;5068963;28;20800;-53
2022/07/12 12:15:52;;;;;;;0.55;0.40;;;26.80;94.50;;;;;;5070927;28;20688;-53
2022/07/12 12:18:31;;;;;;;2.90;0.50;;;26.60;95.40;;;;;;5070253;28;20587;-53
2022/07/12 12:21:00;;;;;;;1.53;0.50;;;26.60;95.90;;;;;;5070757;28;20671;-53
2022/07/12 12:23:27;;;;;;;0.40;0.40;;;26.60;94.80;;;;;;5070556;28;20209;-52
2022/07/12 12:26:10;;;;;;;1.80;0.70;;;26.70;97.30;;;;;;5071087;28;20660;-53
2022/07/12 12:28:47;;;;;;;0.70;0.70;;;26.40;95.90;;;;;;5065975;28;20229;-52
2022/07/12 12:31:15;;;;;;;0.57;0.57;;;26.30;95.10;;;;;;5067784;28;20196;-53
2022/07/12 12:33:46;;;;;;;0.60;0.60;;;26.50;96.20;;;;;;5070900;28;20236;-53
2022/07/12 12:36:14;;;;;;;0.63;0.50;;;26.70;94.50;;;;;;5070123;28;20706;-52
2022/07/12 12:38:42;;;;;;;1.13;0.50;;;26.80;96.80;;;;;;5068538;28;20225;-53
2022/07/12 12:41:09;;;;;;;3.90;0.63;;;26.80;94.60;;;;;;5068567;28;20300;-53
2022/07/12 12:43:36;;;;;;;1.13;0.47;;;26.80;96.10;;;;;;5069935;28;20204;-53
2022/07/12 12:46:03;;;;;;;0.60;0.60;;;26.60;93.60;;;;;;5069334;28;20197;-53
2022/07/12 12:48:31;;;;;;;0.80;0.80;;;26.60;96.90;;;;;;5069689;28;20290;-53
2022/07/12 12:51:07;;;;;;;1.80;0.80;;;26.60;96.00;;;;;;5069956;28;20197;-55
2022/07/12 12:53:34;;;;;;;1.30;0.60;;;26.70;96.00;;;;;;5070933;28;20197;-54
2022/07/12 12:56:02;;;;;;;0.40;0.40;;;26.50;94.30;;;;;;5070639;28;20706;-53
2022/07/12 12:58:29;;;;;;;1.10;1.00;;;26.60;93.60;;;;;;5069850;28;20221;-53
2022/07/12 13:00:57;;;;;;;0.63;0.50;;;26.80;96.10;;;;;;5069410;28;20224;-53
2022/07/12 13:03:25;;;;;;;2.57;0.67;;;26.60;94.40;;;;;;5068664;28;20197;-54